Fokker F50-120 from 334th RNLAF at Eindhoven.
 Regi:U-05  LARGER
 MSN Year:20235 1992
 Date of picture:2008-01-25 09:45
 Discription:Named Fons Aler
 Position:22
 Logs: 480C18 U-05 NAF50 2008-01-25 17:38 Fokker 50 Netherlands 334sqn ESIB, SE 2008-01-25 15:38:08
 Metar 25/01/2008 09:25 METAR EHEH 250925Z 22015KT 9999 FEW200 BKN300 04/02 Q1037 BLU BLU=
 Hits: 512 ID: 213

Debriefing: Photographed movements of Airports in NW-Europe.
The images of our site attendant is in authorisation from Queen of Sky.
Copying of images of this site have been prohibited in which manner without the authorisation of the photographer.
In behalf of the crew :"Thank you visiting us" - Contact
Factsheets Fokker, F50-120, 334th RNLAF, made by De Plane! © 2006 - 2022 All rights reserved


.